Terminal Aerodrome Forecast
Issued by NWS Memphis, TN

Current Version | Previous Version | Text Only | Print | Product List | Glossary On
Versions: 1 2 3 4 5 6 7 8 9 10 11 12 13 14 15 16 17 18 19 20 21 22 23 24 25 26 27 28 29 30 31 32 33
000
FTUS44 KMEG 050220 AAA
TAFMEM
TAF AMD
KMEM 050220Z 0502/0524 20004KT P6SM VCSH SCT025 BKN040 BKN150
      TEMPO 0502/0504 BKN025 OVC035
     FM050400 20004KT P6SM SCT025 BKN150
     FM050600 20003KT 5SM BR BKN015
      TEMPO 0509/0513 2SM BR OVC007
     FM051600 24007KT P6SM SCT020 BKN035
     FM051900 23008KT P6SM VCTS BKN040CB=

USA.gov is the U.S. government's official web portal to all federal, state and local government web resources and services.